Riverton Regional Airport

Airport
ICAO code: 
KRIW
Summary
ICAO Region: 
NAM
Territory: 
Location: 
Riverton, Wyoming,
Coordinates: 
Aerial View: 
43° 3' 55.728" N, 108° 27' 37.829" W
Airport CFIT: 
Altimeter Temperature Error Correction
Airport RE: 
Hot and High Operations
Metar
Observation
KRIW 040653Z AUTO 00000KT 10SM CLR 03/M02 A3010 RMK AO2 SLP186 T00281022 401221028
Station
Riverton, Riverton Regional Airport
Date/Time
2021-12-04 06:53:00
Wind direction
Wind speed
00 kts
Lowest cloud amount
n/a
Temperature
2.8°C
Dew point
-2.2°C
Humidity
69%
Weather condition
n/a

Description

Riverton Regional Airport is a public use airport located 5 km northwest of the central business district of Riverton, a city in Fremont County, Wyoming.

Climatology

Semi-arid climate (Köppen climate classification BSk). - Hot, sometimes extremely hot summers and cold, sometimes very cold winters. Some snowfall during the winter. Areas featuring cold semi-arid climates are sometimes subject to major temperature swings during a 24 hour period.

Runways

Designator Length Width Surface Rops
1/19 1463 21 ASP Yes/Yes
10/28 2500 46 ASP Yes/Yes
Airport map: 
Aerial View: 

SKYbrary Partners:

Safety knowledge contributed by: